sensor_id;sensor_type;location;lat;lon;timestamp;pressure;altitude;pressure_sealevel;temperature;humidity
76808;BME280;65758;45.458;11.062;2023-06-14T00:01:30;100415.41;;;22.11;56.27
76808;BME280;65758;45.458;11.062;2023-06-14T00:04:01;100414.10;;;22.09;56.35
76808;BME280;65758;45.458;11.062;2023-06-14T00:06:29;100412.66;;;22.06;56.40
76808;BME280;65758;45.458;11.062;2023-06-14T00:08:56;100409.77;;;22.03;56.62
76808;BME280;65758;45.458;11.062;2023-06-14T00:11:22;100408.49;;;22.00;56.81
76808;BME280;65758;45.458;11.062;2023-06-14T00:13:49;100404.33;;;21.97;56.78
76808;BME280;65758;45.458;11.062;2023-06-14T00:16:16;100405.17;;;21.94;57.00
76808;BME280;65758;45.458;11.062;2023-06-14T00:18:44;100402.09;;;21.90;57.08
76808;BME280;65758;45.458;11.062;2023-06-14T00:21:12;100399.96;;;21.88;57.05
76808;BME280;65758;45.458;11.062;2023-06-14T00:23:39;100400.55;;;21.87;57.04
76808;BME280;65758;45.458;11.062;2023-06-14T00:26:06;100404.48;;;21.85;57.26
76808;BME280;65758;45.458;11.062;2023-06-14T00:28:32;100405.48;;;21.83;57.28
76808;BME280;65758;45.458;11.062;2023-06-14T00:30:59;100398.79;;;21.80;57.34
76808;BME280;65758;45.458;11.062;2023-06-14T00:33:27;100400.98;;;21.76;57.51
76808;BME280;65758;45.458;11.062;2023-06-14T00:35:54;100399.38;;;21.73;57.64
76808;BME280;65758;45.458;11.062;2023-06-14T00:38:21;100403.36;;;21.71;57.46
76808;BME280;65758;45.458;11.062;2023-06-14T00:40:48;100404.17;;;21.70;57.30
76808;BME280;65758;45.458;11.062;2023-06-14T00:43:15;100405.78;;;21.68;57.39
76808;BME280;65758;45.458;11.062;2023-06-14T00:45:42;100406.85;;;21.64;57.40
76808;BME280;65758;45.458;11.062;2023-06-14T00:48:10;100401.61;;;21.62;57.62
76808;BME280;65758;45.458;11.062;2023-06-14T00:50:37;100402.95;;;21.59;57.60
76808;BME280;65758;45.458;11.062;2023-06-14T00:53:04;100399.85;;;21.57;57.66
76808;BME280;65758;45.458;11.062;2023-06-14T00:55:31;100400.55;;;21.56;57.82
76808;BME280;65758;45.458;11.062;2023-06-14T00:57:59;100402.17;;;21.55;57.65
76808;BME280;65758;45.458;11.062;2023-06-14T01:00:26;100403.89;;;21.53;57.79
76808;BME280;65758;45.458;11.062;2023-06-14T01:08:02;100397.73;;;21.46;57.97
76808;BME280;65758;45.458;11.062;2023-06-14T01:13:19;100391.19;;;21.47;57.83
76808;BME280;65758;45.458;11.062;2023-06-14T01:15:49;100390.48;;;21.47;57.82
76808;BME280;65758;45.458;11.062;2023-06-14T01:18:17;100386.60;;;21.43;57.69
76808;BME280;65758;45.458;11.062;2023-06-14T01:20:46;100383.51;;;21.38;57.82
76808;BME280;65758;45.458;11.062;2023-06-14T01:23:17;100385.08;;;21.35;57.71
76808;BME280;65758;45.458;11.062;2023-06-14T01:25:45;100383.75;;;21.34;57.76
76808;BME280;65758;45.458;11.062;2023-06-14T01:28:15;100384.35;;;21.35;57.72
76808;BME280;65758;45.458;11.062;2023-06-14T01:30:45;100381.83;;;21.36;57.87
76808;BME280;65758;45.458;11.062;2023-06-14T01:33:26;100387.08;;;21.33;58.22
76808;BME280;65758;45.458;11.062;2023-06-14T01:35:57;100385.50;;;21.30;58.52
76808;BME280;65758;45.458;11.062;2023-06-14T01:38:26;100386.45;;;21.27;58.44
76808;BME280;65758;45.458;11.062;2023-06-14T01:40:55;100387.40;;;21.24;58.64
76808;BME280;65758;45.458;11.062;2023-06-14T01:43:25;100385.30;;;21.20;58.67
76808;BME280;65758;45.458;11.062;2023-06-14T01:45:54;100384.90;;;21.18;58.63
76808;BME280;65758;45.458;11.062;2023-06-14T01:48:23;100387.83;;;21.13;58.68
76808;BME280;65758;45.458;11.062;2023-06-14T01:50:50;100385.23;;;21.07;58.63
76808;BME280;65758;45.458;11.062;2023-06-14T01:53:16;100385.94;;;21.01;58.93
76808;BME280;65758;45.458;11.062;2023-06-14T01:55:43;100382.20;;;20.99;59.05
76808;BME280;65758;45.458;11.062;2023-06-14T01:58:11;100379.73;;;20.96;59.01
76808;BME280;65758;45.458;11.062;2023-06-14T02:00:38;100378.59;;;20.92;59.17
76808;BME280;65758;45.458;11.062;2023-06-14T02:03:04;100380.06;;;20.90;59.29
76808;BME280;65758;45.458;11.062;2023-06-14T02:05:31;100381.23;;;20.87;59.24
76808;BME280;65758;45.458;11.062;2023-06-14T02:07:58;100381.48;;;20.85;59.38
76808;BME280;65758;45.458;11.062;2023-06-14T02:10:25;100381.98;;;20.82;59.48
76808;BME280;65758;45.458;11.062;2023-06-14T02:12:54;100381.35;;;20.80;59.55
76808;BME280;65758;45.458;11.062;2023-06-14T02:15:21;100380.11;;;20.77;59.52
76808;BME280;65758;45.458;11.062;2023-06-14T02:17:49;100380.75;;;20.75;59.47
76808;BME280;65758;45.458;11.062;2023-06-14T02:20:17;100381.06;;;20.74;59.48
76808;BME280;65758;45.458;11.062;2023-06-14T02:22:45;100383.65;;;20.72;59.38
76808;BME280;65758;45.458;11.062;2023-06-14T02:25:12;100382.53;;;20.69;59.38
76808;BME280;65758;45.458;11.062;2023-06-14T02:27:40;100384.58;;;20.67;59.48
76808;BME280;65758;45.458;11.062;2023-06-14T02:30:07;100385.52;;;20.63;59.48
76808;BME280;65758;45.458;11.062;2023-06-14T02:32:34;100389.66;;;20.58;59.52
76808;BME280;65758;45.458;11.062;2023-06-14T02:35:04;100389.39;;;20.54;59.81
76808;BME280;65758;45.458;11.062;2023-06-14T02:37:34;100395.61;;;20.50;59.96
76808;BME280;65758;45.458;11.062;2023-06-14T02:40:01;100395.98;;;20.47;59.90
76808;BME280;65758;45.458;11.062;2023-06-14T02:42:30;100396.39;;;20.42;59.95
76808;BME280;65758;45.458;11.062;2023-06-14T02:44:57;100391.88;;;20.36;59.90
76808;BME280;65758;45.458;11.062;2023-06-14T02:47:24;100385.85;;;20.34;60.17
76808;BME280;65758;45.458;11.062;2023-06-14T02:49:51;100383.84;;;20.34;60.16
76808;BME280;65758;45.458;11.062;2023-06-14T02:52:18;100383.59;;;20.32;60.22
76808;BME280;65758;45.458;11.062;2023-06-14T02:54:45;100374.89;;;20.31;60.26
76808;BME280;65758;45.458;11.062;2023-06-14T02:57:14;100376.18;;;20.30;60.33
76808;BME280;65758;45.458;11.062;2023-06-14T02:59:42;100377.08;;;20.29;60.44
76808;BME280;65758;45.458;11.062;2023-06-14T03:02:09;100371.94;;;20.25;60.51
76808;BME280;65758;45.458;11.062;2023-06-14T03:04:40;100370.79;;;20.20;60.66
76808;BME280;65758;45.458;11.062;2023-06-14T03:07:10;100367.56;;;20.17;60.65
76808;BME280;65758;45.458;11.062;2023-06-14T03:09:39;100365.66;;;20.13;60.66
76808;BME280;65758;45.458;11.062;2023-06-14T03:12:08;100361.98;;;20.11;60.65
76808;BME280;65758;45.458;11.062;2023-06-14T03:14:36;100366.59;;;20.10;60.58
76808;BME280;65758;45.458;11.062;2023-06-14T03:17:03;100366.98;;;20.07;60.61
76808;BME280;65758;45.458;11.062;2023-06-14T03:19:33;100366.95;;;20.05;60.67
76808;BME280;65758;45.458;11.062;2023-06-14T03:21:59;100363.79;;;19.99;60.61
76808;BME280;65758;45.458;11.062;2023-06-14T03:24:27;100363.94;;;19.93;60.72
76808;BME280;65758;45.458;11.062;2023-06-14T03:26:56;100361.95;;;19.88;60.84
76808;BME280;65758;45.458;11.062;2023-06-14T03:29:23;100355.60;;;19.85;60.81
76808;BME280;65758;45.458;11.062;2023-06-14T03:32:01;100357.46;;;19.79;60.76
76808;BME280;65758;45.458;11.062;2023-06-14T03:34:37;100362.60;;;19.71;60.97
76808;BME280;65758;45.458;11.062;2023-06-14T03:37:12;100362.98;;;19.73;61.02
76808;BME280;65758;45.458;11.062;2023-06-14T03:39:40;100359.30;;;19.79;60.97
76808;BME280;65758;45.458;11.062;2023-06-14T03:42:17;100362.50;;;19.84;60.66
76808;BME280;65758;45.458;11.062;2023-06-14T03:44:44;100359.77;;;19.85;60.55
76808;BME280;65758;45.458;11.062;2023-06-14T03:47:11;100352.73;;;19.87;60.53
76808;BME280;65758;45.458;11.062;2023-06-14T03:49:38;100355.20;;;19.90;60.40
76808;BME280;65758;45.458;11.062;2023-06-14T03:52:06;100354.14;;;19.94;60.40
76808;BME280;65758;45.458;11.062;2023-06-14T03:54:34;100349.08;;;19.99;60.43
76808;BME280;65758;45.458;11.062;2023-06-14T03:57:04;100351.79;;;20.03;60.42
76808;BME280;65758;45.458;11.062;2023-06-14T03:59:32;100356.08;;;20.07;60.27
76808;BME280;65758;45.458;11.062;2023-06-14T04:01:59;100354.20;;;20.11;60.15
76808;BME280;65758;45.458;11.062;2023-06-14T04:04:26;100351.64;;;20.15;60.04
76808;BME280;65758;45.458;11.062;2023-06-14T04:06:57;100356.54;;;20.17;60.14
76808;BME280;65758;45.458;11.062;2023-06-14T04:09:26;100355.54;;;20.19;59.99
76808;BME280;65758;45.458;11.062;2023-06-14T04:11:53;100359.87;;;20.22;59.96
76808;BME280;65758;45.458;11.062;2023-06-14T04:14:20;100368.75;;;20.27;59.90
76808;BME280;65758;45.458;11.062;2023-06-14T04:16:48;100374.96;;;20.30;59.90
76808;BME280;65758;45.458;11.062;2023-06-14T04:19:17;100377.08;;;20.33;59.79
76808;BME280;65758;45.458;11.062;2023-06-14T04:21:44;100381.49;;;20.38;59.83
76808;BME280;65758;45.458;11.062;2023-06-14T04:24:13;100385.34;;;20.42;59.70
76808;BME280;65758;45.458;11.062;2023-06-14T04:26:45;100386.13;;;20.44;59.60
76808;BME280;65758;45.458;11.062;2023-06-14T04:29:16;100384.30;;;20.47;59.44
76808;BME280;65758;45.458;11.062;2023-06-14T04:31:48;100386.45;;;20.49;59.39
76808;BME280;65758;45.458;11.062;2023-06-14T04:38:44;100389.36;;;20.56;59.21
76808;BME280;65758;45.458;11.062;2023-06-14T04:41:13;100394.57;;;20.57;59.26
76808;BME280;65758;45.458;11.062;2023-06-14T04:43:41;100394.43;;;20.62;59.29
76808;BME280;65758;45.458;11.062;2023-06-14T04:46:09;100391.81;;;20.66;59.14
76808;BME280;65758;45.458;11.062;2023-06-14T04:48:39;100394.05;;;20.72;59.35
76808;BME280;65758;45.458;11.062;2023-06-14T04:51:09;100395.94;;;20.79;59.32
76808;BME280;65758;45.458;11.062;2023-06-14T04:53:36;100398.77;;;20.83;59.07
76808;BME280;65758;45.458;11.062;2023-06-14T04:56:04;100399.48;;;20.90;59.24
76808;BME280;65758;45.458;11.062;2023-06-14T04:58:32;100400.48;;;21.00;59.33
76808;BME280;65758;45.458;11.062;2023-06-14T05:00:59;100398.98;;;21.10;59.41
76808;BME280;65758;45.458;11.062;2023-06-14T05:03:27;100398.76;;;21.18;59.23
76808;BME280;65758;45.458;11.062;2023-06-14T05:10:11;100401.55;;;21.38;58.96
76808;BME280;65758;45.458;11.062;2023-06-14T05:12:39;100399.56;;;21.43;58.96
76808;BME280;65758;45.458;11.062;2023-06-14T05:15:08;100402.67;;;21.49;58.85
76808;BME280;65758;45.458;11.062;2023-06-14T05:17:35;100406.10;;;21.57;58.77
76808;BME280;65758;45.458;11.062;2023-06-14T05:20:03;100405.58;;;21.67;58.69
76808;BME280;65758;45.458;11.062;2023-06-14T05:22:31;100409.53;;;21.77;58.85
76808;BME280;65758;45.458;11.062;2023-06-14T05:24:58;100410.75;;;21.89;58.39
76808;BME280;65758;45.458;11.062;2023-06-14T05:27:25;100415.77;;;22.01;58.42
76808;BME280;65758;45.458;11.062;2023-06-14T05:29:52;100412.58;;;22.10;58.07
76808;BME280;65758;45.458;11.062;2023-06-14T05:32:22;100413.77;;;22.18;57.74
76808;BME280;65758;45.458;11.062;2023-06-14T05:34:49;100416.16;;;22.27;57.74
76808;BME280;65758;45.458;11.062;2023-06-14T05:37:16;100420.63;;;22.34;57.50
76808;BME280;65758;45.458;11.062;2023-06-14T05:39:44;100421.90;;;22.39;57.47
76808;BME280;65758;45.458;11.062;2023-06-14T05:42:11;100424.55;;;22.43;57.54
76808;BME280;65758;45.458;11.062;2023-06-14T05:44:37;100422.64;;;22.46;57.38
76808;BME280;65758;45.458;11.062;2023-06-14T05:47:04;100424.77;;;22.48;57.28
76808;BME280;65758;45.458;11.062;2023-06-14T05:49:31;100425.48;;;22.51;57.27
76808;BME280;65758;45.458;11.062;2023-06-14T05:56:13;100431.87;;;22.60;57.47
76808;BME280;65758;45.458;11.062;2023-06-14T05:58:40;100433.08;;;22.61;57.44
76808;BME280;65758;45.458;11.062;2023-06-14T06:05:34;100440.21;;;22.63;58.10
76808;BME280;65758;45.458;11.062;2023-06-14T06:08:01;100442.30;;;22.67;58.06
76808;BME280;65758;45.458;11.062;2023-06-14T06:10:28;100448.01;;;22.70;58.24
76808;BME280;65758;45.458;11.062;2023-06-14T06:12:55;100448.59;;;22.73;58.11
76808;BME280;65758;45.458;11.062;2023-06-14T06:15:22;100448.77;;;22.76;58.11
76808;BME280;65758;45.458;11.062;2023-06-14T06:17:50;100451.56;;;22.78;58.02
76808;BME280;65758;45.458;11.062;2023-06-14T06:20:23;100451.49;;;22.78;58.09
76808;BME280;65758;45.458;11.062;2023-06-14T06:22:59;100450.15;;;22.78;58.05
76808;BME280;65758;45.458;11.062;2023-06-14T06:25:27;100450.52;;;22.79;57.97
76808;BME280;65758;45.458;11.062;2023-06-14T06:27:55;100450.09;;;22.78;57.96
76808;BME280;65758;45.458;11.062;2023-06-14T06:30:25;100451.44;;;22.78;58.20
76808;BME280;65758;45.458;11.062;2023-06-14T06:32:52;100454.58;;;22.77;58.37
76808;BME280;65758;45.458;11.062;2023-06-14T06:35:20;100452.63;;;22.75;58.69
76808;BME280;65758;45.458;11.062;2023-06-14T06:37:46;100455.05;;;22.74;58.84
76808;BME280;65758;45.458;11.062;2023-06-14T06:40:13;100459.86;;;22.73;58.76
76808;BME280;65758;45.458;11.062;2023-06-14T06:42:41;100460.67;;;22.73;59.13
76808;BME280;65758;45.458;11.062;2023-06-14T06:45:10;100461.63;;;22.72;59.33
76808;BME280;65758;45.458;11.062;2023-06-14T06:47:37;100460.97;;;22.74;59.37
76808;BME280;65758;45.458;11.062;2023-06-14T06:50:05;100460.18;;;22.77;59.37
76808;BME280;65758;45.458;11.062;2023-06-14T06:52:34;100462.98;;;22.81;59.41
76808;BME280;65758;45.458;11.062;2023-06-14T06:55:01;100466.27;;;22.86;59.33
76808;BME280;65758;45.458;11.062;2023-06-14T07:01:49;100473.25;;;22.91;60.18
76808;BME280;65758;45.458;11.062;2023-06-14T07:04:20;100477.41;;;22.94;59.68
76808;BME280;65758;45.458;11.062;2023-06-14T07:06:47;100480.00;;;22.98;59.25
76808;BME280;65758;45.458;11.062;2023-06-14T07:09:14;100477.39;;;23.04;58.92
76808;BME280;65758;45.458;11.062;2023-06-14T07:11:43;100477.64;;;23.10;58.27
76808;BME280;65758;45.458;11.062;2023-06-14T07:14:11;100477.52;;;23.15;58.05
76808;BME280;65758;45.458;11.062;2023-06-14T07:16:38;100476.20;;;23.23;57.98
76808;BME280;65758;45.458;11.062;2023-06-14T07:19:05;100473.21;;;23.33;57.83
76808;BME280;65758;45.458;11.062;2023-06-14T07:21:32;100472.52;;;23.43;57.49
76808;BME280;65758;45.458;11.062;2023-06-14T07:23:59;100474.39;;;23.53;57.27
76808;BME280;65758;45.458;11.062;2023-06-14T07:26:27;100478.67;;;23.62;57.08
76808;BME280;65758;45.458;11.062;2023-06-14T07:28:54;100479.38;;;23.69;56.64
76808;BME280;65758;45.458;11.062;2023-06-14T07:35:46;100487.73;;;23.93;56.23
76808;BME280;65758;45.458;11.062;2023-06-14T07:38:14;100484.04;;;24.01;55.90
76808;BME280;65758;45.458;11.062;2023-06-14T07:45:03;100495.02;;;24.17;56.08
76808;BME280;65758;45.458;11.062;2023-06-14T07:47:32;100490.73;;;24.22;55.87
76808;BME280;65758;45.458;11.062;2023-06-14T07:54:20;100486.60;;;24.39;55.51
76808;BME280;65758;45.458;11.062;2023-06-14T07:56:51;100483.85;;;24.45;55.36
76808;BME280;65758;45.458;11.062;2023-06-14T07:59:18;100490.21;;;24.49;55.33
76808;BME280;65758;45.458;11.062;2023-06-14T08:01:45;100488.91;;;24.53;55.12
76808;BME280;65758;45.458;11.062;2023-06-14T08:04:15;100493.02;;;24.57;55.08
76808;BME280;65758;45.458;11.062;2023-06-14T08:06:42;100490.17;;;24.61;54.85
76808;BME280;65758;45.458;11.062;2023-06-14T08:13:33;100493.55;;;24.64;54.22
76808;BME280;65758;45.458;11.062;2023-06-14T08:20:27;100495.09;;;24.70;53.86
76808;BME280;65758;45.458;11.062;2023-06-14T08:22:57;100492.40;;;24.74;53.22
76808;BME280;65758;45.458;11.062;2023-06-14T08:25:24;100490.99;;;24.78;52.46
76808;BME280;65758;45.458;11.062;2023-06-14T08:27:52;100493.14;;;24.83;52.17
76808;BME280;65758;45.458;11.062;2023-06-14T08:30:19;100495.83;;;24.85;50.90
76808;BME280;65758;45.458;11.062;2023-06-14T08:32:46;100495.03;;;24.84;50.59
76808;BME280;65758;45.458;11.062;2023-06-14T08:35:22;100505.38;;;24.84;50.58
76808;BME280;65758;45.458;11.062;2023-06-14T08:37:50;100504.57;;;24.87;50.13
76808;BME280;65758;45.458;11.062;2023-06-14T08:42:44;100503.52;;;24.94;50.01
76808;BME280;65758;45.458;11.062;2023-06-14T08:45:13;100503.94;;;24.96;50.11
76808;BME280;65758;45.458;11.062;2023-06-14T08:47:41;100503.50;;;24.98;49.66
76808;BME280;65758;45.458;11.062;2023-06-14T08:50:08;100505.49;;;25.02;49.67
76808;BME280;65758;45.458;11.062;2023-06-14T08:52:55;100506.52;;;25.07;49.62
76808;BME280;65758;45.458;11.062;2023-06-14T08:55:24;100503.62;;;25.11;49.97
76808;BME280;65758;45.458;11.062;2023-06-14T08:57:55;100507.15;;;25.16;50.04
76808;BME280;65758;45.458;11.062;2023-06-14T09:00:30;100517.55;;;25.22;49.94
76808;BME280;65758;45.458;11.062;2023-06-14T09:07:09;100516.54;;;25.36;49.95
76808;BME280;65758;45.458;11.062;2023-06-14T09:09:42;100518.98;;;25.41;50.06
76808;BME280;65758;45.458;11.062;2023-06-14T09:12:30;100519.88;;;25.48;49.96
76808;BME280;65758;45.458;11.062;2023-06-14T09:14:57;100522.20;;;25.51;49.87
76808;BME280;65758;45.458;11.062;2023-06-14T09:21:51;100523.42;;;25.58;49.72
76808;BME280;65758;45.458;11.062;2023-06-14T09:24:19;100525.12;;;25.61;49.80
76808;BME280;65758;45.458;11.062;2023-06-14T09:26:47;100521.21;;;25.62;49.57
76808;BME280;65758;45.458;11.062;2023-06-14T09:29:16;100519.39;;;25.66;49.72
76808;BME280;65758;45.458;11.062;2023-06-14T09:31:46;100520.27;;;25.70;49.66
76808;BME280;65758;45.458;11.062;2023-06-14T09:34:13;100523.35;;;25.75;49.66
76808;BME280;65758;45.458;11.062;2023-06-14T09:36:40;100521.59;;;25.81;49.71
76808;BME280;65758;45.458;11.062;2023-06-14T09:43:16;100526.95;;;25.89;49.23
76808;BME280;65758;45.458;11.062;2023-06-14T09:45:45;100529.32;;;25.92;49.33
76808;BME280;65758;45.458;11.062;2023-06-14T09:52:44;100529.95;;;25.99;48.88
76808;BME280;65758;45.458;11.062;2023-06-14T09:55:13;100528.20;;;26.03;48.58
76808;BME280;65758;45.458;11.062;2023-06-14T10:01:58;100530.83;;;26.12;47.69
76808;BME280;65758;45.458;11.062;2023-06-14T10:04:29;100531.89;;;26.14;47.79
76808;BME280;65758;45.458;11.062;2023-06-14T10:06:58;100530.06;;;26.18;47.72
76808;BME280;65758;45.458;11.062;2023-06-14T10:18:17;100521.55;;;26.32;45.91
76808;BME280;65758;45.458;11.062;2023-06-14T10:23:22;100514.73;;;26.46;45.52
76808;BME280;65758;45.458;11.062;2023-06-14T10:30:04;100514.06;;;26.59;44.94
76808;BME280;65758;45.458;11.062;2023-06-14T10:32:32;100512.59;;;26.64;45.12
76808;BME280;65758;45.458;11.062;2023-06-14T10:35:07;100512.80;;;26.70;44.93
76808;BME280;65758;45.458;11.062;2023-06-14T10:37:37;100511.45;;;26.76;44.45
76808;BME280;65758;45.458;11.062;2023-06-14T10:46:49;100505.77;;;26.88;43.51
76808;BME280;65758;45.458;11.062;2023-06-14T10:49:17;100505.40;;;26.89;42.97
76808;BME280;65758;45.458;11.062;2023-06-14T10:51:50;100507.33;;;26.91;43.16
76808;BME280;65758;45.458;11.062;2023-06-14T10:58:29;100499.17;;;27.04;43.81
76808;BME280;65758;45.458;11.062;2023-06-14T11:05:23;100497.23;;;27.20;42.90
76808;BME280;65758;45.458;11.062;2023-06-14T11:10:40;100495.75;;;27.25;42.42
76808;BME280;65758;45.458;11.062;2023-06-14T11:13:08;100493.43;;;27.32;42.31
76808;BME280;65758;45.458;11.062;2023-06-14T11:15:36;100487.45;;;27.40;42.25
76808;BME280;65758;45.458;11.062;2023-06-14T11:18:07;100487.81;;;27.49;41.54
76808;BME280;65758;45.458;11.062;2023-06-14T11:20:36;100483.43;;;27.54;41.67
76808;BME280;65758;45.458;11.062;2023-06-14T11:23:04;100481.61;;;27.60;41.81
76808;BME280;65758;45.458;11.062;2023-06-14T11:25:31;100479.20;;;27.66;41.61
76808;BME280;65758;45.458;11.062;2023-06-14T11:27:58;100478.98;;;27.71;41.21
76808;BME280;65758;45.458;11.062;2023-06-14T11:30:26;100474.98;;;27.74;41.05
76808;BME280;65758;45.458;11.062;2023-06-14T11:32:54;100470.41;;;27.77;40.93
76808;BME280;65758;45.458;11.062;2023-06-14T11:35:25;100465.41;;;27.78;40.54
76808;BME280;65758;45.458;11.062;2023-06-14T11:37:53;100462.05;;;27.79;40.38
76808;BME280;65758;45.458;11.062;2023-06-14T11:40:26;100463.55;;;27.78;39.84
76808;BME280;65758;45.458;11.062;2023-06-14T11:43:01;100462.58;;;27.76;40.15
76808;BME280;65758;45.458;11.062;2023-06-14T11:45:29;100457.01;;;27.77;39.98
76808;BME280;65758;45.458;11.062;2023-06-14T11:47:58;100450.21;;;27.76;40.03
76808;BME280;65758;45.458;11.062;2023-06-14T11:50:27;100445.83;;;27.82;39.98
76808;BME280;65758;45.458;11.062;2023-06-14T11:57:13;100452.46;;;28.70;38.92
76808;BME280;65758;45.458;11.062;2023-06-14T11:59:40;100445.55;;;29.04;38.79
76808;BME280;65758;45.458;11.062;2023-06-14T12:02:07;100440.68;;;29.32;38.09
76808;BME280;65758;45.458;11.062;2023-06-14T12:04:34;100440.05;;;29.50;37.55
76808;BME280;65758;45.458;11.062;2023-06-14T12:11:22;100429.02;;;29.47;38.16
76808;BME280;65758;45.458;11.062;2023-06-14T12:13:49;100429.91;;;29.36;38.03
76808;BME280;65758;45.458;11.062;2023-06-14T12:20:48;100418.98;;;29.34;38.35
76808;BME280;65758;45.458;11.062;2023-06-14T12:23:16;100415.63;;;29.32;37.83
76808;BME280;65758;45.458;11.062;2023-06-14T12:25:43;100414.71;;;29.34;38.41
76808;BME280;65758;45.458;11.062;2023-06-14T12:28:11;100410.39;;;29.47;37.84
76808;BME280;65758;45.458;11.062;2023-06-14T12:30:38;100410.48;;;29.44;38.08
76808;BME280;65758;45.458;11.062;2023-06-14T12:33:06;100403.03;;;29.45;38.31
76808;BME280;65758;45.458;11.062;2023-06-14T12:35:34;100406.30;;;29.48;38.04
76808;BME280;65758;45.458;11.062;2023-06-14T12:38:01;100399.37;;;29.51;37.90
76808;BME280;65758;45.458;11.062;2023-06-14T12:40:28;100398.81;;;29.60;37.16
76808;BME280;65758;45.458;11.062;2023-06-14T12:42:55;100397.80;;;29.77;37.18
76808;BME280;65758;45.458;11.062;2023-06-14T12:45:21;100399.09;;;29.88;37.74
76808;BME280;65758;45.458;11.062;2023-06-14T12:47:50;100402.08;;;29.77;37.30
76808;BME280;65758;45.458;11.062;2023-06-14T12:50:17;100403.30;;;29.65;36.83
76808;BME280;65758;45.458;11.062;2023-06-14T12:52:44;100402.57;;;29.65;37.00
76808;BME280;65758;45.458;11.062;2023-06-14T12:55:11;100398.74;;;29.66;36.64
76808;BME280;65758;45.458;11.062;2023-06-14T12:57:38;100393.55;;;29.77;36.36
76808;BME280;65758;45.458;11.062;2023-06-14T13:00:05;100391.68;;;29.91;36.75
76808;BME280;65758;45.458;11.062;2023-06-14T13:02:34;100387.39;;;30.07;36.42
76808;BME280;65758;45.458;11.062;2023-06-14T13:05:02;100389.42;;;30.21;35.97
76808;BME280;65758;45.458;11.062;2023-06-14T13:07:30;100391.61;;;30.36;36.01
76808;BME280;65758;45.458;11.062;2023-06-14T13:09:57;100388.90;;;30.50;35.53
76808;BME280;65758;45.458;11.062;2023-06-14T13:12:24;100390.48;;;30.59;34.69
76808;BME280;65758;45.458;11.062;2023-06-14T13:14:51;100385.73;;;30.63;34.99
76808;BME280;65758;45.458;11.062;2023-06-14T13:17:18;100377.98;;;30.63;34.66
76808;BME280;65758;45.458;11.062;2023-06-14T13:19:45;100378.81;;;30.56;34.53
76808;BME280;65758;45.458;11.062;2023-06-14T13:22:12;100384.55;;;30.54;34.34
76808;BME280;65758;45.458;11.062;2023-06-14T13:24:40;100379.44;;;30.56;34.42
76808;BME280;65758;45.458;11.062;2023-06-14T13:31:29;100378.44;;;30.69;33.86
76808;BME280;65758;45.458;11.062;2023-06-14T13:33:56;100379.98;;;30.69;33.20
76808;BME280;65758;45.458;11.062;2023-06-14T13:40:42;100368.98;;;30.65;33.44
76808;BME280;65758;45.458;11.062;2023-06-14T13:43:10;100367.95;;;30.62;33.36
76808;BME280;65758;45.458;11.062;2023-06-14T13:45:36;100363.64;;;30.57;33.29
76808;BME280;65758;45.458;11.062;2023-06-14T13:52:24;100365.73;;;30.49;31.78
76808;BME280;65758;45.458;11.062;2023-06-14T13:59:11;100360.13;;;30.73;31.21
76808;BME280;65758;45.458;11.062;2023-06-14T14:01:39;100359.55;;;30.77;31.27
76808;BME280;65758;45.458;11.062;2023-06-14T14:04:06;100356.60;;;30.79;31.70
76808;BME280;65758;45.458;11.062;2023-06-14T14:06:33;100354.29;;;30.80;31.89
76808;BME280;65758;45.458;11.062;2023-06-14T14:09:00;100356.45;;;30.79;31.79
76808;BME280;65758;45.458;11.062;2023-06-14T14:11:27;100360.52;;;30.72;31.25
76808;BME280;65758;45.458;11.062;2023-06-14T14:13:54;100359.59;;;30.64;31.18
76808;BME280;65758;45.458;11.062;2023-06-14T14:16:21;100361.24;;;30.66;31.08
76808;BME280;65758;45.458;11.062;2023-06-14T14:18:48;100359.81;;;30.74;30.73
76808;BME280;65758;45.458;11.062;2023-06-14T14:21:15;100356.16;;;30.81;30.44
76808;BME280;65758;45.458;11.062;2023-06-14T14:23:42;100354.62;;;30.89;30.21
76808;BME280;65758;45.458;11.062;2023-06-14T14:26:09;100352.23;;;30.95;30.16
76808;BME280;65758;45.458;11.062;2023-06-14T14:28:36;100349.67;;;30.98;30.34
76808;BME280;65758;45.458;11.062;2023-06-14T14:31:03;100351.11;;;30.95;30.90
76808;BME280;65758;45.458;11.062;2023-06-14T14:33:29;100351.52;;;30.91;30.70
76808;BME280;65758;45.458;11.062;2023-06-14T14:35:56;100347.85;;;30.85;31.39
76808;BME280;65758;45.458;11.062;2023-06-14T14:38:23;100344.79;;;30.85;31.73
76808;BME280;65758;45.458;11.062;2023-06-14T14:40:50;100346.07;;;30.89;31.40
76808;BME280;65758;45.458;11.062;2023-06-14T14:47:38;100340.79;;;30.79;32.07
76808;BME280;65758;45.458;11.062;2023-06-14T14:50:05;100341.97;;;30.74;32.60
76808;BME280;65758;45.458;11.062;2023-06-14T14:52:35;100336.98;;;30.67;32.86
76808;BME280;65758;45.458;11.062;2023-06-14T14:55:03;100334.77;;;30.65;31.97
76808;BME280;65758;45.458;11.062;2023-06-14T14:57:30;100336.09;;;30.67;31.15
76808;BME280;65758;45.458;11.062;2023-06-14T14:59:57;100334.91;;;30.72;31.06
76808;BME280;65758;45.458;11.062;2023-06-14T15:02:24;100333.89;;;30.78;30.77
76808;BME280;65758;45.458;11.062;2023-06-14T15:04:51;100331.39;;;30.82;31.02
76808;BME280;65758;45.458;11.062;2023-06-14T15:25:42;100335.48;;;30.99;30.68
76808;BME280;65758;45.458;11.062;2023-06-14T15:28:09;100333.80;;;30.85;31.15